sensor_id;sensor_type;location;lat;lon;timestamp;temperature;humidity
9157;DHT22;4613;48.392;9.998;2023-08-07T00:00:14;11.90;99.90
9157;DHT22;4613;48.392;9.998;2023-08-07T00:03:04;12.10;99.90
9157;DHT22;4613;48.392;9.998;2023-08-07T00:05:53;11.70;99.90
9157;DHT22;4613;48.392;9.998;2023-08-07T00:08:43;12.10;99.90
9157;DHT22;4613;48.392;9.998;2023-08-07T00:11:33;12.10;99.90
9157;DHT22;4613;48.392;9.998;2023-08-07T00:14:23;11.90;99.90
9157;DHT22;4613;48.392;9.998;2023-08-07T00:17:12;12.10;99.90
9157;DHT22;4613;48.392;9.998;2023-08-07T00:20:01;11.90;99.90
9157;DHT22;4613;48.392;9.998;2023-08-07T00:22:51;12.10;99.90
9157;DHT22;4613;48.392;9.998;2023-08-07T00:25:40;11.70;99.90
9157;DHT22;4613;48.392;9.998;2023-08-07T00:28:30;11.80;99.90
9157;DHT22;4613;48.392;9.998;2023-08-07T00:31:19;11.90;99.90
9157;DHT22;4613;48.392;9.998;2023-08-07T00:34:08;12.10;99.90
9157;DHT22;4613;48.392;9.998;2023-08-07T00:36:58;12.00;99.90
9157;DHT22;4613;48.392;9.998;2023-08-07T00:39:47;12.00;99.90
9157;DHT22;4613;48.392;9.998;2023-08-07T00:42:36;12.00;99.90
9157;DHT22;4613;48.392;9.998;2023-08-07T00:45:26;12.10;99.90
9157;DHT22;4613;48.392;9.998;2023-08-07T00:48:16;12.10;99.90
9157;DHT22;4613;48.392;9.998;2023-08-07T00:51:06;12.00;99.90
9157;DHT22;4613;48.392;9.998;2023-08-07T00:53:57;12.10;99.90
9157;DHT22;4613;48.392;9.998;2023-08-07T00:56:48;11.80;99.90
9157;DHT22;4613;48.392;9.998;2023-08-07T00:59:38;11.80;99.90
9157;DHT22;4613;48.392;9.998;2023-08-07T01:02:28;11.80;99.90
9157;DHT22;4613;48.392;9.998;2023-08-07T01:05:18;11.80;99.90
9157;DHT22;4613;48.392;9.998;2023-08-07T01:08:08;12.30;99.90
9157;DHT22;4613;48.392;9.998;2023-08-07T01:17:06;12.40;99.90
9157;DHT22;4613;48.392;9.998;2023-08-07T01:19:56;12.20;99.90
9157;DHT22;4613;48.392;9.998;2023-08-07T01:22:47;12.20;99.90
9157;DHT22;4613;48.392;9.998;2023-08-07T01:25:36;12.20;99.90
9157;DHT22;4613;48.392;9.998;2023-08-07T01:28:33;11.90;99.90
9157;DHT22;4613;48.392;9.998;2023-08-07T01:31:24;11.90;99.90
9157;DHT22;4613;48.392;9.998;2023-08-07T01:34:17;11.90;99.90
9157;DHT22;4613;48.392;9.998;2023-08-07T01:37:07;11.90;99.90
9157;DHT22;4613;48.392;9.998;2023-08-07T01:39:59;12.00;99.90
9157;DHT22;4613;48.392;9.998;2023-08-07T01:42:49;12.20;99.90
9157;DHT22;4613;48.392;9.998;2023-08-07T01:45:39;11.80;99.90
9157;DHT22;4613;48.392;9.998;2023-08-07T01:48:31;12.10;99.90
9157;DHT22;4613;48.392;9.998;2023-08-07T01:51:20;11.90;99.90
9157;DHT22;4613;48.392;9.998;2023-08-07T01:54:09;11.70;99.90
9157;DHT22;4613;48.392;9.998;2023-08-07T01:56:58;11.70;99.90
9157;DHT22;4613;48.392;9.998;2023-08-07T01:59:47;11.50;99.90
9157;DHT22;4613;48.392;9.998;2023-08-07T02:02:39;11.70;99.90
9157;DHT22;4613;48.392;9.998;2023-08-07T02:05:31;11.70;99.90
9157;DHT22;4613;48.392;9.998;2023-08-07T02:08:25;11.50;99.90
9157;DHT22;4613;48.392;9.998;2023-08-07T02:11:14;11.40;99.90
9157;DHT22;4613;48.392;9.998;2023-08-07T02:14:04;11.40;99.90
9157;DHT22;4613;48.392;9.998;2023-08-07T02:16:52;11.40;99.90
9157;DHT22;4613;48.392;9.998;2023-08-07T02:19:43;11.30;99.90
9157;DHT22;4613;48.392;9.998;2023-08-07T02:22:33;11.10;99.90
9157;DHT22;4613;48.392;9.998;2023-08-07T02:25:23;11.20;99.90
9157;DHT22;4613;48.392;9.998;2023-08-07T02:28:13;11.30;99.90
9157;DHT22;4613;48.392;9.998;2023-08-07T02:31:02;11.20;99.90
9157;DHT22;4613;48.392;9.998;2023-08-07T02:33:51;11.20;99.90
9157;DHT22;4613;48.392;9.998;2023-08-07T02:36:40;11.30;99.90
9157;DHT22;4613;48.392;9.998;2023-08-07T02:39:30;11.40;99.90
9157;DHT22;4613;48.392;9.998;2023-08-07T02:42:20;11.40;99.90
9157;DHT22;4613;48.392;9.998;2023-08-07T02:45:10;11.40;99.90
9157;DHT22;4613;48.392;9.998;2023-08-07T02:47:59;11.40;99.90
9157;DHT22;4613;48.392;9.998;2023-08-07T02:50:49;11.40;99.90
9157;DHT22;4613;48.392;9.998;2023-08-07T02:53:40;11.30;99.90
9157;DHT22;4613;48.392;9.998;2023-08-07T02:56:29;11.40;99.90
9157;DHT22;4613;48.392;9.998;2023-08-07T02:59:19;11.30;99.90
9157;DHT22;4613;48.392;9.998;2023-08-07T03:02:08;11.40;99.90
9157;DHT22;4613;48.392;9.998;2023-08-07T03:04:58;11.40;99.90
9157;DHT22;4613;48.392;9.998;2023-08-07T03:07:47;11.40;99.90
9157;DHT22;4613;48.392;9.998;2023-08-07T03:10:36;11.30;99.90
9157;DHT22;4613;48.392;9.998;2023-08-07T03:13:26;11.40;99.90
9157;DHT22;4613;48.392;9.998;2023-08-07T03:16:15;11.40;99.90
9157;DHT22;4613;48.392;9.998;2023-08-07T03:19:04;11.40;99.90
9157;DHT22;4613;48.392;9.998;2023-08-07T03:21:54;11.40;99.90
9157;DHT22;4613;48.392;9.998;2023-08-07T03:24:48;11.30;99.90
9157;DHT22;4613;48.392;9.998;2023-08-07T03:27:38;11.20;99.90
9157;DHT22;4613;48.392;9.998;2023-08-07T03:30:28;11.20;99.90
9157;DHT22;4613;48.392;9.998;2023-08-07T03:33:17;11.30;99.90
9157;DHT22;4613;48.392;9.998;2023-08-07T03:36:06;11.30;99.90
9157;DHT22;4613;48.392;9.998;2023-08-07T03:38:56;11.30;99.90
9157;DHT22;4613;48.392;9.998;2023-08-07T03:41:45;11.40;99.90
9157;DHT22;4613;48.392;9.998;2023-08-07T03:44:35;11.50;99.90
9157;DHT22;4613;48.392;9.998;2023-08-07T03:47:24;11.50;99.90
9157;DHT22;4613;48.392;9.998;2023-08-07T03:50:14;11.60;99.90
9157;DHT22;4613;48.392;9.998;2023-08-07T03:53:04;11.60;99.90
9157;DHT22;4613;48.392;9.998;2023-08-07T03:55:57;11.60;99.90
9157;DHT22;4613;48.392;9.998;2023-08-07T03:58:47;11.70;99.90
9157;DHT22;4613;48.392;9.998;2023-08-07T04:01:38;11.70;99.90
9157;DHT22;4613;48.392;9.998;2023-08-07T04:04:27;11.70;99.90
9157;DHT22;4613;48.392;9.998;2023-08-07T04:07:16;11.70;99.90
9157;DHT22;4613;48.392;9.998;2023-08-07T04:10:07;11.70;99.90
9157;DHT22;4613;48.392;9.998;2023-08-07T04:12:58;11.70;99.90
9157;DHT22;4613;48.392;9.998;2023-08-07T04:15:48;11.70;99.90
9157;DHT22;4613;48.392;9.998;2023-08-07T04:18:38;11.80;99.90
9157;DHT22;4613;48.392;9.998;2023-08-07T04:21:27;11.60;99.90
9157;DHT22;4613;48.392;9.998;2023-08-07T04:24:17;11.60;99.90
9157;DHT22;4613;48.392;9.998;2023-08-07T04:27:06;11.70;99.90
9157;DHT22;4613;48.392;9.998;2023-08-07T04:29:57;11.70;99.90
9157;DHT22;4613;48.392;9.998;2023-08-07T04:32:47;11.70;99.90
9157;DHT22;4613;48.392;9.998;2023-08-07T04:35:36;11.60;99.90
9157;DHT22;4613;48.392;9.998;2023-08-07T04:38:26;11.50;99.90
9157;DHT22;4613;48.392;9.998;2023-08-07T04:41:15;11.60;99.90
9157;DHT22;4613;48.392;9.998;2023-08-07T04:44:04;11.60;99.90
9157;DHT22;4613;48.392;9.998;2023-08-07T04:46:53;11.60;99.90
9157;DHT22;4613;48.392;9.998;2023-08-07T04:49:42;11.60;99.90
9157;DHT22;4613;48.392;9.998;2023-08-07T04:52:32;11.60;99.90
9157;DHT22;4613;48.392;9.998;2023-08-07T04:55:21;11.60;99.90
9157;DHT22;4613;48.392;9.998;2023-08-07T04:58:11;11.60;99.90
9157;DHT22;4613;48.392;9.998;2023-08-07T05:01:00;11.60;99.90
9157;DHT22;4613;48.392;9.998;2023-08-07T05:03:49;11.70;99.90
9157;DHT22;4613;48.392;9.998;2023-08-07T05:06:38;11.70;99.90
9157;DHT22;4613;48.392;9.998;2023-08-07T05:09:28;11.60;99.90
9157;DHT22;4613;48.392;9.998;2023-08-07T05:12:17;11.70;99.90
9157;DHT22;4613;48.392;9.998;2023-08-07T05:15:08;11.60;99.90
9157;DHT22;4613;48.392;9.998;2023-08-07T05:17:57;11.60;99.90
9157;DHT22;4613;48.392;9.998;2023-08-07T05:20:47;11.70;99.90
9157;DHT22;4613;48.392;9.998;2023-08-07T05:23:36;11.80;99.90
9157;DHT22;4613;48.392;9.998;2023-08-07T05:26:26;12.00;99.90
9157;DHT22;4613;48.392;9.998;2023-08-07T05:29:15;12.00;99.90
9157;DHT22;4613;48.392;9.998;2023-08-07T05:32:05;12.00;99.90
9157;DHT22;4613;48.392;9.998;2023-08-07T05:34:55;12.00;99.90
9157;DHT22;4613;48.392;9.998;2023-08-07T05:37:46;11.90;99.90
9157;DHT22;4613;48.392;9.998;2023-08-07T05:40:35;12.00;99.90
9157;DHT22;4613;48.392;9.998;2023-08-07T05:43:25;12.00;99.90
9157;DHT22;4613;48.392;9.998;2023-08-07T05:46:14;12.00;99.90
9157;DHT22;4613;48.392;9.998;2023-08-07T05:49:04;11.90;99.90
9157;DHT22;4613;48.392;9.998;2023-08-07T05:51:53;11.90;99.90
9157;DHT22;4613;48.392;9.998;2023-08-07T05:54:43;12.00;99.90
9157;DHT22;4613;48.392;9.998;2023-08-07T05:57:32;12.10;99.90
9157;DHT22;4613;48.392;9.998;2023-08-07T06:00:21;12.30;99.90
9157;DHT22;4613;48.392;9.998;2023-08-07T06:03:11;12.60;99.90
9157;DHT22;4613;48.392;9.998;2023-08-07T06:06:00;12.50;99.90
9157;DHT22;4613;48.392;9.998;2023-08-07T06:08:50;12.50;99.90
9157;DHT22;4613;48.392;9.998;2023-08-07T06:11:39;12.80;99.90
9157;DHT22;4613;48.392;9.998;2023-08-07T06:14:28;13.10;99.90
9157;DHT22;4613;48.392;9.998;2023-08-07T06:17:17;12.50;99.90
9157;DHT22;4613;48.392;9.998;2023-08-07T06:20:08;12.40;99.90
9157;DHT22;4613;48.392;9.998;2023-08-07T06:22:58;13.10;99.90
9157;DHT22;4613;48.392;9.998;2023-08-07T06:25:47;12.80;99.90
9157;DHT22;4613;48.392;9.998;2023-08-07T06:28:36;13.10;99.90
9157;DHT22;4613;48.392;9.998;2023-08-07T06:31:26;13.40;99.90
9157;DHT22;4613;48.392;9.998;2023-08-07T06:34:15;12.90;99.90
9157;DHT22;4613;48.392;9.998;2023-08-07T06:37:06;13.30;99.90
9157;DHT22;4613;48.392;9.998;2023-08-07T06:39:56;13.20;99.90
9157;DHT22;4613;48.392;9.998;2023-08-07T06:42:45;13.10;99.90
9157;DHT22;4613;48.392;9.998;2023-08-07T06:45:36;13.30;99.90
9157;DHT22;4613;48.392;9.998;2023-08-07T06:48:26;13.00;99.90
9157;DHT22;4613;48.392;9.998;2023-08-07T06:51:15;13.00;99.90
9157;DHT22;4613;48.392;9.998;2023-08-07T06:54:05;13.00;99.90
9157;DHT22;4613;48.392;9.998;2023-08-07T06:56:55;13.00;99.90
9157;DHT22;4613;48.392;9.998;2023-08-07T06:59:45;13.10;99.90
9157;DHT22;4613;48.392;9.998;2023-08-07T07:02:34;13.10;99.90
9157;DHT22;4613;48.392;9.998;2023-08-07T07:05:23;13.00;99.90
9157;DHT22;4613;48.392;9.998;2023-08-07T07:08:13;13.00;99.90
9157;DHT22;4613;48.392;9.998;2023-08-07T07:11:02;13.00;99.90
9157;DHT22;4613;48.392;9.998;2023-08-07T07:13:53;13.30;99.90
9157;DHT22;4613;48.392;9.998;2023-08-07T07:16:43;13.40;99.90
9157;DHT22;4613;48.392;9.998;2023-08-07T07:19:33;13.40;99.90
9157;DHT22;4613;48.392;9.998;2023-08-07T07:22:22;13.40;99.90
9157;DHT22;4613;48.392;9.998;2023-08-07T07:25:11;13.30;99.90
9157;DHT22;4613;48.392;9.998;2023-08-07T07:28:02;13.40;99.90
9157;DHT22;4613;48.392;9.998;2023-08-07T07:30:52;13.40;99.90
9157;DHT22;4613;48.392;9.998;2023-08-07T07:33:41;13.40;99.90
9157;DHT22;4613;48.392;9.998;2023-08-07T07:36:32;13.30;99.90
9157;DHT22;4613;48.392;9.998;2023-08-07T07:39:21;13.50;99.90
9157;DHT22;4613;48.392;9.998;2023-08-07T07:42:11;13.60;99.90
9157;DHT22;4613;48.392;9.998;2023-08-07T07:45:00;13.50;99.90
9157;DHT22;4613;48.392;9.998;2023-08-07T07:47:50;13.90;99.90
9157;DHT22;4613;48.392;9.998;2023-08-07T07:50:40;14.00;99.90
9157;DHT22;4613;48.392;9.998;2023-08-07T07:53:30;14.30;99.90
9157;DHT22;4613;48.392;9.998;2023-08-07T07:56:19;14.50;99.90
9157;DHT22;4613;48.392;9.998;2023-08-07T07:59:09;14.20;99.90
9157;DHT22;4613;48.392;9.998;2023-08-07T08:01:58;14.00;99.90
9157;DHT22;4613;48.392;9.998;2023-08-07T08:04:48;14.00;99.90
9157;DHT22;4613;48.392;9.998;2023-08-07T08:07:39;14.10;99.90
9157;DHT22;4613;48.392;9.998;2023-08-07T08:10:29;14.10;99.90
9157;DHT22;4613;48.392;9.998;2023-08-07T08:13:18;14.20;99.90
9157;DHT22;4613;48.392;9.998;2023-08-07T08:16:08;14.60;99.90
9157;DHT22;4613;48.392;9.998;2023-08-07T08:18:58;14.90;99.90
9157;DHT22;4613;48.392;9.998;2023-08-07T08:21:47;14.80;99.90
9157;DHT22;4613;48.392;9.998;2023-08-07T08:24:36;14.90;99.90
9157;DHT22;4613;48.392;9.998;2023-08-07T08:27:25;14.90;99.90
9157;DHT22;4613;48.392;9.998;2023-08-07T08:30:15;15.10;99.90
9157;DHT22;4613;48.392;9.998;2023-08-07T08:33:05;15.30;99.90
9157;DHT22;4613;48.392;9.998;2023-08-07T08:35:55;15.10;99.90
9157;DHT22;4613;48.392;9.998;2023-08-07T08:38:44;15.00;99.90
9157;DHT22;4613;48.392;9.998;2023-08-07T08:41:36;15.50;99.90
9157;DHT22;4613;48.392;9.998;2023-08-07T08:44:26;15.90;99.90
9157;DHT22;4613;48.392;9.998;2023-08-07T08:47:18;15.60;99.90
9157;DHT22;4613;48.392;9.998;2023-08-07T08:50:10;15.30;99.90
9157;DHT22;4613;48.392;9.998;2023-08-07T08:53:00;15.40;99.90
9157;DHT22;4613;48.392;9.998;2023-08-07T08:55:52;16.50;99.90
9157;DHT22;4613;48.392;9.998;2023-08-07T08:58:41;16.20;99.90
9157;DHT22;4613;48.392;9.998;2023-08-07T09:01:31;15.90;99.90
9157;DHT22;4613;48.392;9.998;2023-08-07T09:04:21;15.70;99.90
9157;DHT22;4613;48.392;9.998;2023-08-07T09:07:13;15.70;99.90
9157;DHT22;4613;48.392;9.998;2023-08-07T09:10:04;15.80;99.90
9157;DHT22;4613;48.392;9.998;2023-08-07T09:13:00;16.60;99.90
9157;DHT22;4613;48.392;9.998;2023-08-07T09:15:51;16.10;99.90
9157;DHT22;4613;48.392;9.998;2023-08-07T09:18:41;16.10;99.90
9157;DHT22;4613;48.392;9.998;2023-08-07T09:21:31;16.40;99.90
9157;DHT22;4613;48.392;9.998;2023-08-07T09:24:20;16.50;99.90
9157;DHT22;4613;48.392;9.998;2023-08-07T09:27:11;16.50;99.90
9157;DHT22;4613;48.392;9.998;2023-08-07T09:30:02;16.20;99.90
9157;DHT22;4613;48.392;9.998;2023-08-07T09:32:51;16.40;99.90
9157;DHT22;4613;48.392;9.998;2023-08-07T09:35:40;16.90;99.90
9157;DHT22;4613;48.392;9.998;2023-08-07T09:38:30;17.20;99.90
9157;DHT22;4613;48.392;9.998;2023-08-07T09:41:24;17.00;99.90
9157;DHT22;4613;48.392;9.998;2023-08-07T09:44:13;16.60;99.90
9157;DHT22;4613;48.392;9.998;2023-08-07T09:47:13;16.50;99.90
9157;DHT22;4613;48.392;9.998;2023-08-07T09:50:03;16.50;99.90
9157;DHT22;4613;48.392;9.998;2023-08-07T09:52:52;16.20;99.90
9157;DHT22;4613;48.392;9.998;2023-08-07T09:55:42;16.20;99.90
9157;DHT22;4613;48.392;9.998;2023-08-07T09:58:33;16.20;99.90
9157;DHT22;4613;48.392;9.998;2023-08-07T10:01:22;17.20;99.90
9157;DHT22;4613;48.392;9.998;2023-08-07T10:04:12;17.30;99.90
9157;DHT22;4613;48.392;9.998;2023-08-07T10:07:05;18.00;99.90
9157;DHT22;4613;48.392;9.998;2023-08-07T10:09:54;17.60;99.90
9157;DHT22;4613;48.392;9.998;2023-08-07T10:12:45;17.60;99.90
9157;DHT22;4613;48.392;9.998;2023-08-07T10:15:37;17.70;99.90
9157;DHT22;4613;48.392;9.998;2023-08-07T10:18:29;17.60;99.90
9157;DHT22;4613;48.392;9.998;2023-08-07T10:21:19;17.50;99.90
9157;DHT22;4613;48.392;9.998;2023-08-07T10:24:14;17.20;99.90
9157;DHT22;4613;48.392;9.998;2023-08-07T10:27:06;16.90;99.90
9157;DHT22;4613;48.392;9.998;2023-08-07T10:29:56;16.90;99.90
9157;DHT22;4613;48.392;9.998;2023-08-07T10:32:47;17.20;99.90
9157;DHT22;4613;48.392;9.998;2023-08-07T10:35:37;17.40;99.90
9157;DHT22;4613;48.392;9.998;2023-08-07T10:38:35;17.50;99.90
9157;DHT22;4613;48.392;9.998;2023-08-07T10:41:25;17.70;99.90
9157;DHT22;4613;48.392;9.998;2023-08-07T10:44:22;17.60;99.90
9157;DHT22;4613;48.392;9.998;2023-08-07T10:47:12;17.60;99.90
9157;DHT22;4613;48.392;9.998;2023-08-07T10:50:03;17.40;99.90
9157;DHT22;4613;48.392;9.998;2023-08-07T10:52:54;17.20;99.90
9157;DHT22;4613;48.392;9.998;2023-08-07T10:55:45;17.40;99.90
9157;DHT22;4613;48.392;9.998;2023-08-07T10:58:40;18.40;99.90
9157;DHT22;4613;48.392;9.998;2023-08-07T11:04:19;18.50;99.90
9157;DHT22;4613;48.392;9.998;2023-08-07T11:07:26;18.00;99.90
9157;DHT22;4613;48.392;9.998;2023-08-07T11:10:15;18.10;99.90
9157;DHT22;4613;48.392;9.998;2023-08-07T11:13:05;17.90;99.90
9157;DHT22;4613;48.392;9.998;2023-08-07T11:15:55;18.00;99.90
9157;DHT22;4613;48.392;9.998;2023-08-07T11:18:44;17.90;99.90
9157;DHT22;4613;48.392;9.998;2023-08-07T11:21:36;18.10;99.90
9157;DHT22;4613;48.392;9.998;2023-08-07T11:24:27;18.20;99.90
9157;DHT22;4613;48.392;9.998;2023-08-07T11:27:16;18.50;99.90
9157;DHT22;4613;48.392;9.998;2023-08-07T11:30:06;18.20;99.90
9157;DHT22;4613;48.392;9.998;2023-08-07T11:32:59;17.80;99.90
9157;DHT22;4613;48.392;9.998;2023-08-07T11:35:49;17.80;99.90
9157;DHT22;4613;48.392;9.998;2023-08-07T11:38:44;18.10;99.90
9157;DHT22;4613;48.392;9.998;2023-08-07T11:41:33;17.80;99.90
9157;DHT22;4613;48.392;9.998;2023-08-07T11:44:23;17.60;99.90
9157;DHT22;4613;48.392;9.998;2023-08-07T11:47:13;17.60;99.90
9157;DHT22;4613;48.392;9.998;2023-08-07T11:50:05;17.90;99.90
9157;DHT22;4613;48.392;9.998;2023-08-07T11:52:54;17.80;99.90
9157;DHT22;4613;48.392;9.998;2023-08-07T11:55:57;17.70;99.90
9157;DHT22;4613;48.392;9.998;2023-08-07T11:58:48;17.80;99.90
9157;DHT22;4613;48.392;9.998;2023-08-07T12:01:38;18.40;99.90
9157;DHT22;4613;48.392;9.998;2023-08-07T12:04:31;18.70;99.90
9157;DHT22;4613;48.392;9.998;2023-08-07T12:07:24;18.60;99.90
9157;DHT22;4613;48.392;9.998;2023-08-07T12:10:15;18.40;99.90
9157;DHT22;4613;48.392;9.998;2023-08-07T12:13:08;18.40;99.00
9157;DHT22;4613;48.392;9.998;2023-08-07T12:15:58;18.20;98.80
9157;DHT22;4613;48.392;9.998;2023-08-07T12:18:49;18.60;99.50
9157;DHT22;4613;48.392;9.998;2023-08-07T12:21:39;18.80;99.50
9157;DHT22;4613;48.392;9.998;2023-08-07T12:24:29;18.60;99.70
9157;DHT22;4613;48.392;9.998;2023-08-07T12:27:18;18.30;99.20
9157;DHT22;4613;48.392;9.998;2023-08-07T12:30:08;18.00;99.90
9157;DHT22;4613;48.392;9.998;2023-08-07T12:32:58;17.50;99.90
9157;DHT22;4613;48.392;9.998;2023-08-07T12:35:47;17.20;99.90
9157;DHT22;4613;48.392;9.998;2023-08-07T12:38:37;17.00;99.90
9157;DHT22;4613;48.392;9.998;2023-08-07T12:41:26;17.00;99.90
9157;DHT22;4613;48.392;9.998;2023-08-07T12:44:16;16.90;99.90
9157;DHT22;4613;48.392;9.998;2023-08-07T12:47:06;17.20;99.90
9157;DHT22;4613;48.392;9.998;2023-08-07T12:49:55;17.40;99.90
9157;DHT22;4613;48.392;9.998;2023-08-07T12:52:44;17.30;99.90
9157;DHT22;4613;48.392;9.998;2023-08-07T12:55:33;17.00;99.90
9157;DHT22;4613;48.392;9.998;2023-08-07T12:58:23;17.10;99.90
9157;DHT22;4613;48.392;9.998;2023-08-07T13:01:14;16.90;99.90
9157;DHT22;4613;48.392;9.998;2023-08-07T13:04:04;16.90;99.90
9157;DHT22;4613;48.392;9.998;2023-08-07T13:06:56;16.80;99.90
9157;DHT22;4613;48.392;9.998;2023-08-07T13:09:45;17.00;99.90
9157;DHT22;4613;48.392;9.998;2023-08-07T13:12:38;17.10;99.90
9157;DHT22;4613;48.392;9.998;2023-08-07T13:15:28;17.20;99.90
9157;DHT22;4613;48.392;9.998;2023-08-07T13:18:18;17.30;99.90
9157;DHT22;4613;48.392;9.998;2023-08-07T13:21:07;17.30;99.90
9157;DHT22;4613;48.392;9.998;2023-08-07T13:23:57;17.00;99.90
9157;DHT22;4613;48.392;9.998;2023-08-07T13:26:46;17.00;99.90
9157;DHT22;4613;48.392;9.998;2023-08-07T13:29:35;16.90;99.90
9157;DHT22;4613;48.392;9.998;2023-08-07T13:32:26;16.70;99.90
9157;DHT22;4613;48.392;9.998;2023-08-07T13:35:16;16.70;99.90
9157;DHT22;4613;48.392;9.998;2023-08-07T13:38:05;16.40;99.90
9157;DHT22;4613;48.392;9.998;2023-08-07T13:40:56;16.30;99.90
9157;DHT22;4613;48.392;9.998;2023-08-07T13:43:46;16.30;99.90
9157;DHT22;4613;48.392;9.998;2023-08-07T13:46:36;16.20;99.90
9157;DHT22;4613;48.392;9.998;2023-08-07T13:49:26;16.10;99.90
9157;DHT22;4613;48.392;9.998;2023-08-07T13:52:16;16.30;99.90
9157;DHT22;4613;48.392;9.998;2023-08-07T13:55:06;16.50;99.90
9157;DHT22;4613;48.392;9.998;2023-08-07T13:57:55;16.60;99.90
9157;DHT22;4613;48.392;9.998;2023-08-07T14:00:46;16.50;99.90
9157;DHT22;4613;48.392;9.998;2023-08-07T14:03:35;16.40;99.90
9157;DHT22;4613;48.392;9.998;2023-08-07T14:06:24;16.30;99.90
9157;DHT22;4613;48.392;9.998;2023-08-07T14:09:13;16.60;99.90
9157;DHT22;4613;48.392;9.998;2023-08-07T14:12:03;16.70;99.90
9157;DHT22;4613;48.392;9.998;2023-08-07T14:14:53;16.70;99.90
9157;DHT22;4613;48.392;9.998;2023-08-07T14:17:43;16.60;99.90
9157;DHT22;4613;48.392;9.998;2023-08-07T14:20:33;16.60;99.90
9157;DHT22;4613;48.392;9.998;2023-08-07T14:23:22;16.60;99.90
9157;DHT22;4613;48.392;9.998;2023-08-07T14:26:12;16.50;99.90
9157;DHT22;4613;48.392;9.998;2023-08-07T14:29:02;16.50;99.90
9157;DHT22;4613;48.392;9.998;2023-08-07T14:31:51;16.60;99.90
9157;DHT22;4613;48.392;9.998;2023-08-07T14:34:40;16.90;99.90
9157;DHT22;4613;48.392;9.998;2023-08-07T14:37:29;16.80;99.90
9157;DHT22;4613;48.392;9.998;2023-08-07T14:40:18;16.80;99.90
9157;DHT22;4613;48.392;9.998;2023-08-07T14:43:08;17.30;99.90
9157;DHT22;4613;48.392;9.998;2023-08-07T14:45:58;17.20;99.90
9157;DHT22;4613;48.392;9.998;2023-08-07T14:48:48;17.30;99.90
9157;DHT22;4613;48.392;9.998;2023-08-07T14:51:37;17.30;99.90
9157;DHT22;4613;48.392;9.998;2023-08-07T14:54:26;17.20;99.90
9157;DHT22;4613;48.392;9.998;2023-08-07T14:57:15;17.10;99.90
9157;DHT22;4613;48.392;9.998;2023-08-07T15:00:05;17.20;99.90
9157;DHT22;4613;48.392;9.998;2023-08-07T15:02:56;17.00;99.90
9157;DHT22;4613;48.392;9.998;2023-08-07T15:05:47;16.90;99.90
9157;DHT22;4613;48.392;9.998;2023-08-07T15:08:36;16.80;99.90
9157;DHT22;4613;48.392;9.998;2023-08-07T15:11:25;16.80;99.90
9157;DHT22;4613;48.392;9.998;2023-08-07T15:14:14;17.00;99.90
9157;DHT22;4613;48.392;9.998;2023-08-07T15:17:04;17.20;99.90
9157;DHT22;4613;48.392;9.998;2023-08-07T15:19:53;17.80;99.90
9157;DHT22;4613;48.392;9.998;2023-08-07T15:22:44;18.20;99.90
9157;DHT22;4613;48.392;9.998;2023-08-07T15:25:33;18.00;99.90
9157;DHT22;4613;48.392;9.998;2023-08-07T15:28:23;17.90;99.90
9157;DHT22;4613;48.392;9.998;2023-08-07T15:31:12;17.90;99.90
9157;DHT22;4613;48.392;9.998;2023-08-07T15:34:01;17.80;99.90
9157;DHT22;4613;48.392;9.998;2023-08-07T15:36:50;17.90;99.90
9157;DHT22;4613;48.392;9.998;2023-08-07T15:39:40;17.80;99.90
9157;DHT22;4613;48.392;9.998;2023-08-07T15:42:29;18.10;99.90
9157;DHT22;4613;48.392;9.998;2023-08-07T15:45:18;17.90;99.90
9157;DHT22;4613;48.392;9.998;2023-08-07T15:48:08;17.80;99.90
9157;DHT22;4613;48.392;9.998;2023-08-07T15:50:57;17.70;99.90
9157;DHT22;4613;48.392;9.998;2023-08-07T15:53:46;17.60;99.90
9157;DHT22;4613;48.392;9.998;2023-08-07T15:56:36;17.60;99.90
9157;DHT22;4613;48.392;9.998;2023-08-07T15:59:26;17.40;99.90
9157;DHT22;4613;48.392;9.998;2023-08-07T16:02:16;17.30;99.90
9157;DHT22;4613;48.392;9.998;2023-08-07T16:05:05;17.30;99.90
9157;DHT22;4613;48.392;9.998;2023-08-07T16:07:55;17.40;99.90
9157;DHT22;4613;48.392;9.998;2023-08-07T16:10:44;17.50;99.90
9157;DHT22;4613;48.392;9.998;2023-08-07T16:13:33;17.50;99.90
9157;DHT22;4613;48.392;9.998;2023-08-07T16:16:22;17.40;99.90
9157;DHT22;4613;48.392;9.998;2023-08-07T16:19:11;17.20;99.90
9157;DHT22;4613;48.392;9.998;2023-08-07T16:22:01;17.20;99.90
9157;DHT22;4613;48.392;9.998;2023-08-07T16:24:51;17.10;99.90
9157;DHT22;4613;48.392;9.998;2023-08-07T16:27:41;17.20;99.90
9157;DHT22;4613;48.392;9.998;2023-08-07T16:30:30;17.20;99.90
9157;DHT22;4613;48.392;9.998;2023-08-07T16:33:20;17.20;99.90
9157;DHT22;4613;48.392;9.998;2023-08-07T16:36:09;17.20;99.90
9157;DHT22;4613;48.392;9.998;2023-08-07T16:38:59;17.10;99.90
9157;DHT22;4613;48.392;9.998;2023-08-07T16:41:48;17.00;99.90
9157;DHT22;4613;48.392;9.998;2023-08-07T16:44:41;17.10;99.90
9157;DHT22;4613;48.392;9.998;2023-08-07T16:47:30;17.00;99.90
9157;DHT22;4613;48.392;9.998;2023-08-07T16:50:20;17.00;99.90
9157;DHT22;4613;48.392;9.998;2023-08-07T16:53:09;17.00;99.90
9157;DHT22;4613;48.392;9.998;2023-08-07T16:56:00;16.90;99.90
9157;DHT22;4613;48.392;9.998;2023-08-07T16:58:49;17.00;99.90
9157;DHT22;4613;48.392;9.998;2023-08-07T17:01:39;16.90;99.90
9157;DHT22;4613;48.392;9.998;2023-08-07T17:04:29;17.00;99.90
9157;DHT22;4613;48.392;9.998;2023-08-07T17:07:21;17.10;99.90
9157;DHT22;4613;48.392;9.998;2023-08-07T17:10:10;17.00;99.90
9157;DHT22;4613;48.392;9.998;2023-08-07T17:13:03;16.90;99.90
9157;DHT22;4613;48.392;9.998;2023-08-07T17:15:52;16.90;99.90
9157;DHT22;4613;48.392;9.998;2023-08-07T17:18:42;16.90;99.90
9157;DHT22;4613;48.392;9.998;2023-08-07T17:21:31;17.00;99.90
9157;DHT22;4613;48.392;9.998;2023-08-07T17:24:21;16.90;99.90
9157;DHT22;4613;48.392;9.998;2023-08-07T17:27:10;16.80;99.90
9157;DHT22;4613;48.392;9.998;2023-08-07T17:29:59;16.80;99.90
9157;DHT22;4613;48.392;9.998;2023-08-07T17:32:50;16.80;99.90
9157;DHT22;4613;48.392;9.998;2023-08-07T17:35:39;16.90;99.90
9157;DHT22;4613;48.392;9.998;2023-08-07T17:38:29;16.90;99.90
9157;DHT22;4613;48.392;9.998;2023-08-07T17:41:18;16.90;99.90
9157;DHT22;4613;48.392;9.998;2023-08-07T17:44:09;16.80;99.90
9157;DHT22;4613;48.392;9.998;2023-08-07T17:46:58;16.90;99.90
9157;DHT22;4613;48.392;9.998;2023-08-07T17:49:47;16.90;99.90
9157;DHT22;4613;48.392;9.998;2023-08-07T17:52:38;16.90;99.90
9157;DHT22;4613;48.392;9.998;2023-08-07T17:55:27;16.90;99.90
9157;DHT22;4613;48.392;9.998;2023-08-07T17:58:16;16.80;99.90
9157;DHT22;4613;48.392;9.998;2023-08-07T18:01:07;16.80;99.90
9157;DHT22;4613;48.392;9.998;2023-08-07T18:03:56;16.90;99.90
9157;DHT22;4613;48.392;9.998;2023-08-07T18:06:49;16.90;99.90
9157;DHT22;4613;48.392;9.998;2023-08-07T18:09:38;16.90;99.90
9157;DHT22;4613;48.392;9.998;2023-08-07T18:12:28;16.90;99.90
9157;DHT22;4613;48.392;9.998;2023-08-07T18:15:17;16.90;99.90
9157;DHT22;4613;48.392;9.998;2023-08-07T18:18:06;16.80;99.90
9157;DHT22;4613;48.392;9.998;2023-08-07T18:20:56;16.80;99.90
9157;DHT22;4613;48.392;9.998;2023-08-07T18:23:45;16.80;99.90
9157;DHT22;4613;48.392;9.998;2023-08-07T18:26:35;16.80;99.90
9157;DHT22;4613;48.392;9.998;2023-08-07T18:29:25;16.70;99.90
9157;DHT22;4613;48.392;9.998;2023-08-07T18:32:14;16.70;99.90
9157;DHT22;4613;48.392;9.998;2023-08-07T18:35:03;16.60;99.90
9157;DHT22;4613;48.392;9.998;2023-08-07T18:37:54;16.50;99.90